createdAt,value
2022-09-26T00:00:09.659Z,25.73
2022-09-26T00:00:33.114Z,24.60
2022-09-26T00:00:55.906Z,25.98
2022-09-26T00:01:19.819Z,25.35
2022-09-26T00:01:44.240Z,25.00
2022-09-26T00:02:07.157Z,23.90
2022-09-26T00:02:30.118Z,24.67
2022-09-26T00:02:53.006Z,24.02
2022-09-26T00:03:15.806Z,24.80
2022-09-26T00:03:38.635Z,24.20
2022-09-26T00:04:02.685Z,23.27
2022-09-26T00:04:32.395Z,25.33
2022-09-26T00:04:55.993Z,25.63
2022-09-26T00:05:18.769Z,26.08
2022-09-26T00:05:41.642Z,26.03
2022-09-26T00:06:04.939Z,26.83
2022-09-26T00:06:27.732Z,25.55
2022-09-26T00:06:50.985Z,25.27
2022-09-26T00:07:13.778Z,24.23
2022-09-26T00:07:36.493Z,25.90
2022-09-26T00:07:59.233Z,25.08
2022-09-26T00:08:22.083Z,25.52
2022-09-26T00:08:45.329Z,25.75
2022-09-26T00:09:08.076Z,26.30
2022-09-26T00:09:30.903Z,26.02
2022-09-26T00:09:55.689Z,25.10
2022-09-26T00:10:18.540Z,25.73
2022-09-26T00:10:41.303Z,26.52
2022-09-26T00:11:05.135Z,25.15
2022-09-26T00:11:29.804Z,27.67
2022-09-26T00:11:52.586Z,26.98
2022-09-26T00:12:15.556Z,25.65
2022-09-26T00:12:38.329Z,26.35
2022-09-26T00:13:01.634Z,24.80
2022-09-26T00:13:24.443Z,26.13
2022-09-26T00:13:47.284Z,24.88
2022-09-26T00:14:12.858Z,26.63
2022-09-26T00:14:35.691Z,26.25
2022-09-26T00:14:58.639Z,25.98
2022-09-26T00:15:21.454Z,28.15
2022-09-26T00:15:45.062Z,27.10
2022-09-26T00:16:07.923Z,25.63
2022-09-26T00:16:31.506Z,26.48
2022-09-26T00:16:55.947Z,25.08
2022-09-26T00:17:18.911Z,24.92
2022-09-26T00:17:44.391Z,25.45
2022-09-26T00:18:07.249Z,25.17
2022-09-26T00:18:30.039Z,24.35
2022-09-26T00:18:54.160Z,23.88
2022-09-26T00:19:16.995Z,25.42
2022-09-26T00:19:39.934Z,24.05
2022-09-26T00:20:02.735Z,26.45
2022-09-26T00:20:25.502Z,34.05
2022-09-26T00:20:48.293Z,28.05
2022-09-26T00:21:13.668Z,27.00
2022-09-26T00:21:36.449Z,26.85
2022-09-26T00:21:59.289Z,29.77
2022-09-26T00:22:22.073Z,32.53
2022-09-26T00:22:44.848Z,28.52
2022-09-26T00:23:07.610Z,28.63
2022-09-26T00:23:30.432Z,28.10
2022-09-26T00:23:53.830Z,28.10
2022-09-26T00:24:16.654Z,26.00
2022-09-26T00:24:39.493Z,26.02
2022-09-26T00:25:02.208Z,38.30
2022-09-26T00:25:27.105Z,41.65
2022-09-26T00:25:50.739Z,41.75
2022-09-26T00:26:14.610Z,37.67
2022-09-26T00:26:37.392Z,37.28
2022-09-26T00:27:00.185Z,36.95
2022-09-26T00:27:23.053Z,40.10
2022-09-26T00:27:45.806Z,31.63
2022-09-26T00:28:08.464Z,39.83
2022-09-26T00:28:31.284Z,61.80
2022-09-26T00:28:54.399Z,29.77
2022-09-26T00:29:17.148Z,38.63
2022-09-26T00:29:39.950Z,58.20
2022-09-26T00:30:02.662Z,55.20
2022-09-26T00:30:25.534Z,60.60
2022-09-26T00:30:48.302Z,82.43
2022-09-26T00:31:13.400Z,68.47
2022-09-26T00:31:38.281Z,124.15
2022-09-26T00:32:02.472Z,203.57
2022-09-26T00:32:28.312Z,272.17
2022-09-26T00:32:51.088Z,181.63
2022-09-26T00:33:14.176Z,196.25
2022-09-26T00:33:36.990Z,178.40
2022-09-26T00:33:59.842Z,244.95
2022-09-26T00:34:22.733Z,244.57
2022-09-26T00:34:46.543Z,136.80
2022-09-26T00:35:10.216Z,145.30
2022-09-26T00:35:33.079Z,162.10
2022-09-26T00:35:55.908Z,81.40
2022-09-26T00:36:18.693Z,86.57
2022-09-26T00:36:41.477Z,137.50
2022-09-26T00:37:04.234Z,173.40
2022-09-26T00:37:26.992Z,189.80
2022-09-26T00:37:49.773Z,191.65
2022-09-26T00:38:12.624Z,190.73
2022-09-26T00:38:35.492Z,257.88
2022-09-26T00:38:58.157Z,242.02
2022-09-26T00:39:20.863Z,175.35
2022-09-26T00:39:43.743Z,216.20
2022-09-26T00:40:08.396Z,138.82
2022-09-26T00:40:31.349Z,111.95
2022-09-26T00:40:54.309Z,122.78
2022-09-26T00:41:17.313Z,139.60
2022-09-26T00:41:40.008Z,209.82
2022-09-26T00:42:05.693Z,240.90
2022-09-26T00:42:28.365Z,304.95
2022-09-26T00:42:51.223Z,197.27
2022-09-26T00:43:28.718Z,172.82
2022-09-26T00:43:52.673Z,135.07
2022-09-26T00:44:43.082Z,129.70
2022-09-26T00:45:07.213Z,104.63
2022-09-26T00:45:30.668Z,133.98
2022-09-26T00:45:53.756Z,89.40
2022-09-26T00:46:26.346Z,85.38
2022-09-26T00:46:49.105Z,171.60
2022-09-26T00:47:26.654Z,151.25
2022-09-26T00:47:50.673Z,123.13
2022-09-26T00:48:13.538Z,153.23
2022-09-26T00:48:36.337Z,147.68
2022-09-26T00:49:06.217Z,143.05
2022-09-26T00:49:31.207Z,78.88
2022-09-26T00:49:58.798Z,187.60
2022-09-26T00:50:23.302Z,235.15
2022-09-26T00:50:46.030Z,210.70
2022-09-26T00:51:08.818Z,286.92
2022-09-26T00:51:32.296Z,243.73
2022-09-26T00:51:57.783Z,269.35
2022-09-26T00:52:25.348Z,294.80
2022-09-26T00:52:51.551Z,379.60
2022-09-26T00:53:16.191Z,210.43
2022-09-26T00:53:41.188Z,233.35
2022-09-26T00:54:05.344Z,167.63
2022-09-26T00:54:29.217Z,133.00
2022-09-26T00:54:53.208Z,153.23
2022-09-26T00:55:18.914Z,259.13
2022-09-26T00:55:43.444Z,272.05
2022-09-26T00:56:08.499Z,228.20
2022-09-26T00:56:33.208Z,271.38
2022-09-26T00:56:57.309Z,165.48
2022-09-26T00:57:23.389Z,125.03
2022-09-26T00:57:48.063Z,142.45
2022-09-26T00:58:12.779Z,107.03
2022-09-26T00:58:39.582Z,144.18
2022-09-26T00:59:04.437Z,325.33
2022-09-26T00:59:28.706Z,270.50
2022-09-26T00:59:54.882Z,162.85
2022-09-26T01:00:17.738Z,114.95
2022-09-26T01:00:42.334Z,166.68
2022-09-26T01:01:05.632Z,212.90
2022-09-26T01:01:28.607Z,190.48
2022-09-26T01:01:51.995Z,229.77
2022-09-26T01:02:16.039Z,188.23
2022-09-26T01:02:40.418Z,179.75
2022-09-26T01:03:04.425Z,143.65
2022-09-26T01:03:27.252Z,100.13
2022-09-26T01:03:50.082Z,102.82
2022-09-26T01:04:12.857Z,146.18
2022-09-26T01:04:38.587Z,100.38
2022-09-26T01:05:01.415Z,158.93
2022-09-26T01:05:24.342Z,252.65
2022-09-26T01:05:47.134Z,206.13
2022-09-26T01:06:09.983Z,93.88
2022-09-26T01:06:33.066Z,130.38
2022-09-26T01:06:55.987Z,138.65
2022-09-26T01:07:21.300Z,150.13
2022-09-26T01:07:44.058Z,172.05
2022-09-26T01:08:06.894Z,141.45
2022-09-26T01:08:33.665Z,125.50
2022-09-26T01:08:57.940Z,85.10
2022-09-26T01:09:20.633Z,98.57
2022-09-26T01:09:43.433Z,164.85
2022-09-26T01:10:07.378Z,144.02
2022-09-26T01:10:30.280Z,77.43
2022-09-26T01:10:53.654Z,116.32
2022-09-26T01:11:17.328Z,124.68
2022-09-26T01:11:41.553Z,113.35
2022-09-26T01:12:04.934Z,89.82
2022-09-26T01:12:27.704Z,91.70
2022-09-26T01:12:50.733Z,91.80
2022-09-26T01:13:13.598Z,110.07
2022-09-26T01:13:36.828Z,131.52
2022-09-26T01:13:59.584Z,69.93
2022-09-26T01:14:26.433Z,65.18
2022-09-26T01:14:51.245Z,96.47
2022-09-26T01:15:14.007Z,78.93
2022-09-26T01:15:36.837Z,104.82
2022-09-26T01:15:59.528Z,116.45
2022-09-26T01:16:22.312Z,52.60
2022-09-26T01:16:46.332Z,88.95
2022-09-26T01:17:09.260Z,86.07
2022-09-26T01:17:32.024Z,105.40
2022-09-26T01:17:56.434Z,77.78
2022-09-26T01:18:19.367Z,74.20
2022-09-26T01:18:42.340Z,67.18
2022-09-26T01:19:08.344Z,99.88
2022-09-26T01:19:43.862Z,141.15
2022-09-26T01:20:28.036Z,72.70
2022-09-26T01:20:52.540Z,52.40
2022-09-26T01:22:03.626Z,49.33
2022-09-26T01:22:43.599Z,56.58
2022-09-26T01:23:59.910Z,66.97
2022-09-26T01:24:36.514Z,97.18
2022-09-26T01:25:07.758Z,96.88
2022-09-26T01:25:37.511Z,91.88
2022-09-26T01:26:22.957Z,178.07
2022-09-26T01:27:08.044Z,118.75
2022-09-26T01:27:43.510Z,143.30
2022-09-26T01:28:18.894Z,133.02
2022-09-26T01:28:53.657Z,93.38
2022-09-26T01:29:45.695Z,94.75
2022-09-26T01:30:12.085Z,108.47
2022-09-26T01:30:37.553Z,108.63
2022-09-26T01:31:02.173Z,81.05
2022-09-26T01:31:27.479Z,76.55
2022-09-26T01:32:12.614Z,79.88
2022-09-26T01:33:13.823Z,85.68
2022-09-26T01:33:45.593Z,121.55
2022-09-26T01:34:10.587Z,75.07
2022-09-26T01:34:35.721Z,68.28
2022-09-26T01:35:02.755Z,75.63
2022-09-26T01:35:33.226Z,81.97
2022-09-26T01:36:11.536Z,69.55
2022-09-26T01:36:54.806Z,105.72
2022-09-26T01:37:21.154Z,100.85
2022-09-26T01:37:49.393Z,106.80
2022-09-26T01:38:16.405Z,86.05
2022-09-26T01:38:45.220Z,88.05
2022-09-26T01:39:19.071Z,101.47
2022-09-26T01:39:46.266Z,78.38
2022-09-26T01:40:10.758Z,109.38
2022-09-26T01:40:36.068Z,161.10
2022-09-26T01:41:06.359Z,96.97
2022-09-26T01:41:37.008Z,92.55
2022-09-26T01:42:03.853Z,95.53
2022-09-26T01:42:29.138Z,83.90
2022-09-26T01:42:55.899Z,85.28
2022-09-26T01:43:22.633Z,65.20
2022-09-26T01:43:50.836Z,102.53
2022-09-26T01:44:27.859Z,77.72
2022-09-26T01:44:53.229Z,96.85
2022-09-26T01:45:19.062Z,75.30
2022-09-26T01:45:46.631Z,98.63
2022-09-26T01:46:14.563Z,90.50
2022-09-26T01:46:39.860Z,80.40
2022-09-26T01:47:06.229Z,86.88
2022-09-26T01:47:32.033Z,69.88
2022-09-26T01:47:57.179Z,85.88
2022-09-26T01:48:20.853Z,99.90
2022-09-26T01:48:45.332Z,118.88
2022-09-26T01:49:10.482Z,138.73
2022-09-26T01:49:35.413Z,75.13
2022-09-26T01:50:00.663Z,73.68
2022-09-26T01:50:26.630Z,98.45
2022-09-26T01:50:50.579Z,66.43
2022-09-26T01:51:14.710Z,115.93
2022-09-26T01:51:39.731Z,90.03
2022-09-26T01:52:05.296Z,86.03
2022-09-26T01:52:32.023Z,109.35
2022-09-26T01:52:56.997Z,179.95
2022-09-26T01:53:21.964Z,120.30
2022-09-26T01:53:47.380Z,120.88
2022-09-26T01:54:11.954Z,248.50
2022-09-26T01:54:37.184Z,113.45
2022-09-26T01:55:04.304Z,90.55
2022-09-26T01:55:29.996Z,119.63
2022-09-26T01:55:55.950Z,115.80
2022-09-26T01:56:20.330Z,117.20
2022-09-26T01:56:46.490Z,116.05
2022-09-26T01:57:13.948Z,141.90
2022-09-26T01:57:40.034Z,127.05
2022-09-26T01:58:05.941Z,187.98
2022-09-26T01:58:30.463Z,154.95
2022-09-26T01:58:55.245Z,143.25
2022-09-26T01:59:21.142Z,162.98
2022-09-26T01:59:45.883Z,146.15
2022-09-26T02:00:12.732Z,153.48
2022-09-26T02:00:37.405Z,127.88
2022-09-26T02:01:01.780Z,157.07
2022-09-26T02:01:26.071Z,178.52
2022-09-26T02:01:49.011Z,231.73
2022-09-26T02:02:13.562Z,271.48
2022-09-26T02:02:38.938Z,203.10
2022-09-26T02:03:01.787Z,204.98
2022-09-26T02:03:28.154Z,108.38
2022-09-26T02:03:52.776Z,173.02
2022-09-26T02:04:17.639Z,157.43
2022-09-26T02:04:41.996Z,327.73
2022-09-26T02:05:07.035Z,396.45
2022-09-26T02:05:33.001Z,279.13
2022-09-26T02:05:57.550Z,247.02
2022-09-26T02:06:22.838Z,285.10
2022-09-26T02:06:48.505Z,227.73
2022-09-26T02:07:13.074Z,173.65
2022-09-26T02:07:37.699Z,208.48
2022-09-26T02:08:03.859Z,354.63
2022-09-26T02:08:28.343Z,336.88
2022-09-26T02:08:53.898Z,190.77
2022-09-26T02:09:18.102Z,279.42
2022-09-26T02:09:42.589Z,182.30
2022-09-26T02:10:08.142Z,165.93
2022-09-26T02:10:34.490Z,95.50
2022-09-26T02:11:02.314Z,100.57
2022-09-26T02:11:25.700Z,128.20
2022-09-26T02:11:49.454Z,111.28
2022-09-26T02:12:14.768Z,178.35
2022-09-26T02:12:39.884Z,151.27
2022-09-26T02:13:08.728Z,219.88
2022-09-26T02:13:34.256Z,183.30
2022-09-26T02:13:59.813Z,93.90
2022-09-26T02:14:24.339Z,126.88
2022-09-26T02:14:47.215Z,71.20
2022-09-26T02:15:12.676Z,57.38
2022-09-26T02:15:37.299Z,57.83
2022-09-26T02:16:05.968Z,50.38
2022-09-26T02:16:30.473Z,67.30
2022-09-26T02:16:54.851Z,47.28
2022-09-26T02:17:19.219Z,53.35
2022-09-26T02:17:44.539Z,69.88
2022-09-26T02:18:13.775Z,64.70
2022-09-26T02:18:39.073Z,58.72
2022-09-26T02:19:03.164Z,57.90
2022-09-26T02:19:28.353Z,96.10
2022-09-26T02:19:52.333Z,71.22
2022-09-26T02:20:16.696Z,53.42
2022-09-26T02:20:39.568Z,47.72
2022-09-26T02:21:04.834Z,50.78
2022-09-26T02:21:27.660Z,54.75
2022-09-26T02:21:50.527Z,63.30
2022-09-26T02:22:13.324Z,128.00
2022-09-26T02:22:36.078Z,106.63
2022-09-26T02:23:03.992Z,120.53
2022-09-26T02:23:26.833Z,139.52
2022-09-26T02:23:49.888Z,91.25
2022-09-26T02:24:12.753Z,67.82
2022-09-26T02:24:35.648Z,70.20
2022-09-26T02:24:58.464Z,81.05
2022-09-26T02:25:21.163Z,99.03
2022-09-26T02:25:43.957Z,93.97
2022-09-26T02:26:07.013Z,69.97
2022-09-26T02:26:29.723Z,67.18
2022-09-26T02:26:52.514Z,68.43
2022-09-26T02:27:18.023Z,88.90
2022-09-26T02:27:40.733Z,101.63
2022-09-26T02:28:03.443Z,109.43
2022-09-26T02:28:26.397Z,87.63
2022-09-26T02:28:49.246Z,85.47
2022-09-26T02:29:13.119Z,111.43
2022-09-26T02:29:36.233Z,116.05
2022-09-26T02:29:59.118Z,65.18
2022-09-26T02:30:22.273Z,71.17
2022-09-26T02:30:46.428Z,73.07
2022-09-26T02:31:09.301Z,51.17
2022-09-26T02:31:35.682Z,71.00
2022-09-26T02:31:59.741Z,111.78
2022-09-26T02:32:25.137Z,163.57
2022-09-26T02:32:47.860Z,161.35
2022-09-26T02:33:10.567Z,69.70
2022-09-26T02:33:34.946Z,70.35
2022-09-26T02:33:57.700Z,67.55
2022-09-26T02:34:20.380Z,88.28
2022-09-26T02:34:43.462Z,76.70
2022-09-26T02:35:25.344Z,60.55
2022-09-26T02:35:56.635Z,57.05
2022-09-26T02:36:19.855Z,80.35
2022-09-26T02:36:42.788Z,56.17
2022-09-26T02:37:05.807Z,107.40
2022-09-26T02:37:31.083Z,153.55
2022-09-26T02:37:54.109Z,63.20
2022-09-26T02:38:17.813Z,91.50
2022-09-26T02:38:40.627Z,132.80
2022-09-26T02:39:03.881Z,62.63
2022-09-26T02:39:27.593Z,59.78
2022-09-26T02:39:50.839Z,68.40
2022-09-26T02:40:13.724Z,63.95
2022-09-26T02:40:42.548Z,66.70
2022-09-26T02:41:13.307Z,44.28
2022-09-26T02:41:41.877Z,41.42
2022-09-26T02:42:11.884Z,34.33
2022-09-26T02:42:36.879Z,32.88
2022-09-26T02:43:05.294Z,33.85
2022-09-26T02:43:39.865Z,34.50
2022-09-26T02:44:12.773Z,44.15
2022-09-26T02:44:42.417Z,52.42
2022-09-26T02:45:12.833Z,88.70
2022-09-26T02:45:39.264Z,54.72
2022-09-26T02:46:10.140Z,37.42
2022-09-26T02:46:48.518Z,44.88
2022-09-26T02:47:35.183Z,38.70
2022-09-26T02:48:22.888Z,46.08
2022-09-26T02:48:52.592Z,52.95
2022-09-26T02:49:24.729Z,79.35
2022-09-26T02:49:55.325Z,66.07
2022-09-26T02:50:25.202Z,49.00
2022-09-26T02:51:08.143Z,71.32
2022-09-26T02:51:50.303Z,47.63
2022-09-26T02:52:24.418Z,64.53
2022-09-26T02:52:53.507Z,58.80
2022-09-26T02:53:24.995Z,54.08
2022-09-26T02:54:05.780Z,41.65
2022-09-26T02:54:31.218Z,82.07
2022-09-26T02:54:58.688Z,106.95
2022-09-26T02:55:22.626Z,96.72
2022-09-26T02:55:48.046Z,311.38
2022-09-26T02:56:14.597Z,370.63
2022-09-26T02:56:42.330Z,163.75
2022-09-26T02:57:11.549Z,155.60
2022-09-26T02:57:40.914Z,93.43
2022-09-26T02:58:07.483Z,73.43
2022-09-26T02:58:36.364Z,106.95
2022-09-26T02:59:03.444Z,98.75
2022-09-26T02:59:29.636Z,59.72
2022-09-26T02:59:54.911Z,110.32
2022-09-26T03:00:18.948Z,65.90
2022-09-26T03:00:48.716Z,59.05
2022-09-26T03:01:16.451Z,64.53
2022-09-26T03:01:42.983Z,55.05
2022-09-26T03:02:10.168Z,68.93
2022-09-26T03:02:38.550Z,61.50
2022-09-26T03:03:03.591Z,66.60
2022-09-26T03:03:30.684Z,72.57
2022-09-26T03:03:54.093Z,93.63
2022-09-26T03:04:21.042Z,62.33
2022-09-26T03:04:46.832Z,107.40
2022-09-26T03:05:11.550Z,130.05
2022-09-26T03:05:35.540Z,102.15
2022-09-26T03:05:58.713Z,95.13
2022-09-26T03:06:24.668Z,130.50
2022-09-26T03:06:48.711Z,92.43
2022-09-26T03:07:14.059Z,81.47
2022-09-26T03:07:41.849Z,99.78
2022-09-26T03:08:07.815Z,103.82
2022-09-26T03:08:32.761Z,71.45
2022-09-26T03:08:55.559Z,107.68
2022-09-26T03:09:18.364Z,73.60
2022-09-26T03:09:41.158Z,75.60
2022-09-26T03:10:04.981Z,94.05
2022-09-26T03:10:27.729Z,84.72
2022-09-26T03:10:50.394Z,121.20
2022-09-26T03:11:14.419Z,186.65
2022-09-26T03:11:37.182Z,220.85
2022-09-26T03:12:01.583Z,214.18
2022-09-26T03:12:24.814Z,170.40
2022-09-26T03:12:47.571Z,112.35
2022-09-26T03:13:11.694Z,237.20
2022-09-26T03:13:35.373Z,275.98
2022-09-26T03:13:58.150Z,245.48
2022-09-26T03:14:21.934Z,116.47
2022-09-26T03:14:44.683Z,77.03
2022-09-26T03:15:09.199Z,65.55
2022-09-26T03:15:32.034Z,205.77
2022-09-26T03:15:56.577Z,209.18
2022-09-26T03:16:21.304Z,129.50
2022-09-26T03:16:45.078Z,225.68
2022-09-26T03:17:07.992Z,253.05
2022-09-26T03:17:31.378Z,414.52
2022-09-26T03:17:54.578Z,389.33
2022-09-26T03:18:20.049Z,226.23
2022-09-26T03:18:45.779Z,155.15
2022-09-26T03:19:10.968Z,116.60
2022-09-26T03:19:35.787Z,239.95
2022-09-26T03:20:01.625Z,151.10
2022-09-26T03:20:25.368Z,182.85
2022-09-26T03:20:48.173Z,208.98
2022-09-26T03:21:10.889Z,111.60
2022-09-26T03:21:37.007Z,124.30
2022-09-26T03:22:02.556Z,86.90
2022-09-26T03:22:25.576Z,118.43
2022-09-26T03:22:48.352Z,101.57
2022-09-26T03:23:11.268Z,186.40
2022-09-26T03:23:36.343Z,257.05
2022-09-26T03:23:59.460Z,193.57
2022-09-26T03:24:23.293Z,143.38
2022-09-26T03:24:46.880Z,113.90
2022-09-26T03:25:13.944Z,154.63
2022-09-26T03:25:36.978Z,112.38
2022-09-26T03:26:01.064Z,80.13
2022-09-26T03:26:24.839Z,109.93
2022-09-26T03:26:47.670Z,166.27
2022-09-26T03:27:12.520Z,187.18
2022-09-26T03:27:38.118Z,116.53
2022-09-26T03:28:02.435Z,113.75
2022-09-26T03:28:25.153Z,134.82
2022-09-26T03:28:47.917Z,124.63
2022-09-26T03:29:10.657Z,113.10
2022-09-26T03:29:33.435Z,140.57
2022-09-26T03:29:56.105Z,199.57
2022-09-26T03:30:18.989Z,179.95
2022-09-26T03:30:41.801Z,201.52
2022-09-26T03:31:04.728Z,120.47
2022-09-26T03:31:29.182Z,105.80
2022-09-26T03:31:52.074Z,92.07
2022-09-26T03:32:14.977Z,131.77
2022-09-26T03:32:37.815Z,176.88
2022-09-26T03:33:03.253Z,188.88
2022-09-26T03:33:26.183Z,123.38
2022-09-26T03:33:48.978Z,94.68
2022-09-26T03:34:11.738Z,98.57
2022-09-26T03:34:34.553Z,122.22
2022-09-26T03:34:57.473Z,113.72
2022-09-26T03:35:20.990Z,112.18
2022-09-26T03:35:43.702Z,212.75
2022-09-26T03:36:07.094Z,98.82
2022-09-26T03:36:32.342Z,74.03
2022-09-26T03:36:55.068Z,76.65
2022-09-26T03:37:18.073Z,64.10
2022-09-26T03:37:40.924Z,60.50
2022-09-26T03:38:03.704Z,175.15
2022-09-26T03:38:26.425Z,172.68
2022-09-26T03:38:49.168Z,136.50
2022-09-26T03:39:12.069Z,130.20
2022-09-26T03:39:35.009Z,101.65
2022-09-26T03:39:57.773Z,102.70
2022-09-26T03:40:20.601Z,132.70
2022-09-26T03:40:44.066Z,146.18
2022-09-26T03:41:09.640Z,174.05
2022-09-26T03:41:33.156Z,142.48
2022-09-26T03:41:57.979Z,122.70
2022-09-26T03:42:20.760Z,173.15
2022-09-26T03:42:43.548Z,173.75
2022-09-26T03:43:06.309Z,140.18
2022-09-26T03:43:29.794Z,121.50
2022-09-26T03:43:52.866Z,146.40
2022-09-26T03:44:16.193Z,127.10
2022-09-26T03:44:38.893Z,77.93
2022-09-26T03:45:01.754Z,79.38
2022-09-26T03:45:24.533Z,89.95
2022-09-26T03:45:47.469Z,119.97
2022-09-26T03:46:12.063Z,71.85
2022-09-26T03:46:40.072Z,67.57
2022-09-26T03:47:03.564Z,96.20
2022-09-26T03:47:26.953Z,92.38
2022-09-26T03:47:55.983Z,150.43
2022-09-26T03:48:21.393Z,106.80
2022-09-26T03:48:44.195Z,104.55
2022-09-26T03:49:07.054Z,94.68
2022-09-26T03:49:29.803Z,89.78
2022-09-26T03:49:52.712Z,124.55
2022-09-26T03:50:15.671Z,107.80
2022-09-26T03:50:38.423Z,96.45
2022-09-26T03:51:04.151Z,74.18
2022-09-26T03:51:28.183Z,98.70
2022-09-26T03:51:51.119Z,115.10
2022-09-26T03:52:17.140Z,137.98
2022-09-26T03:52:40.029Z,112.18
2022-09-26T03:53:02.838Z,94.82
2022-09-26T03:53:25.905Z,115.72
2022-09-26T03:53:48.736Z,95.93
2022-09-26T03:54:12.334Z,247.48
2022-09-26T03:54:35.224Z,295.17
2022-09-26T03:54:58.004Z,192.82
2022-09-26T03:55:20.753Z,138.35
2022-09-26T03:55:43.537Z,78.05
2022-09-26T03:56:07.006Z,160.80
2022-09-26T03:56:29.784Z,121.60
2022-09-26T03:56:52.664Z,182.15
2022-09-26T03:57:16.375Z,218.45
2022-09-26T03:57:39.058Z,229.00
2022-09-26T03:58:02.144Z,163.95
2022-09-26T03:58:25.490Z,82.65
2022-09-26T03:58:49.443Z,108.82
2022-09-26T03:59:15.218Z,100.95
2022-09-26T03:59:38.348Z,113.68
2022-09-26T04:00:01.145Z,140.10
2022-09-26T04:00:24.130Z,175.70
2022-09-26T04:00:47.071Z,153.30
2022-09-26T04:01:10.782Z,160.65
2022-09-26T04:01:35.136Z,253.25
2022-09-26T04:01:57.957Z,181.98
2022-09-26T04:02:21.368Z,155.15
2022-09-26T04:02:44.345Z,141.80
2022-09-26T04:03:07.250Z,111.20
2022-09-26T04:03:32.184Z,108.72
2022-09-26T04:03:56.190Z,137.90
2022-09-26T04:04:18.937Z,93.57
2022-09-26T04:04:41.708Z,95.18
2022-09-26T04:05:04.879Z,139.65
2022-09-26T04:05:28.822Z,109.55
2022-09-26T04:05:51.654Z,130.75
2022-09-26T04:06:15.877Z,91.00
2022-09-26T04:06:38.633Z,97.10
2022-09-26T04:07:01.359Z,120.78
2022-09-26T04:07:24.335Z,96.72
2022-09-26T04:07:47.376Z,90.13
2022-09-26T04:08:10.320Z,100.03
2022-09-26T04:08:33.109Z,105.25
2022-09-26T04:08:56.338Z,85.63
2022-09-26T04:09:19.399Z,141.80
2022-09-26T04:09:42.538Z,79.53
2022-09-26T04:10:06.760Z,117.53
2022-09-26T04:10:29.753Z,162.98
2022-09-26T04:10:52.483Z,124.70
2022-09-26T04:11:17.322Z,109.95
2022-09-26T04:11:40.014Z,95.55
2022-09-26T04:12:02.728Z,97.80
2022-09-26T04:12:26.104Z,86.35
2022-09-26T04:12:48.829Z,97.30
2022-09-26T04:13:19.881Z,115.90
2022-09-26T04:13:54.565Z,71.63
2022-09-26T04:14:17.808Z,126.10
2022-09-26T04:14:40.565Z,177.65
2022-09-26T04:15:03.358Z,71.82
2022-09-26T04:15:26.413Z,79.32
2022-09-26T04:15:56.406Z,128.20
2022-09-26T04:16:20.528Z,87.88
2022-09-26T04:16:45.050Z,90.28
2022-09-26T04:17:08.193Z,186.85
2022-09-26T04:17:31.008Z,213.98
2022-09-26T04:17:54.413Z,107.78
2022-09-26T04:18:17.159Z,146.02
2022-09-26T04:18:39.888Z,238.82
2022-09-26T04:19:02.714Z,147.75
2022-09-26T04:19:26.752Z,137.80
2022-09-26T04:19:49.547Z,126.97
2022-09-26T04:20:12.354Z,196.82
2022-09-26T04:20:35.196Z,143.05
2022-09-26T04:20:59.087Z,147.90
2022-09-26T04:21:21.768Z,114.68
2022-09-26T04:21:45.469Z,84.68
2022-09-26T04:22:08.233Z,126.80
2022-09-26T04:22:31.099Z,68.93
2022-09-26T04:22:54.919Z,67.97
2022-09-26T04:23:17.784Z,125.15
2022-09-26T04:23:41.454Z,267.35
2022-09-26T04:24:04.369Z,84.30
2022-09-26T04:24:27.237Z,72.60
2022-09-26T04:24:49.943Z,85.40
2022-09-26T04:25:12.738Z,69.88
2022-09-26T04:25:37.788Z,84.70
2022-09-26T04:26:04.351Z,76.00
2022-09-26T04:26:27.172Z,71.95
2022-09-26T04:26:49.874Z,84.25
2022-09-26T04:27:12.548Z,90.93
2022-09-26T04:27:36.194Z,81.07
2022-09-26T04:27:59.332Z,73.80
2022-09-26T04:28:22.178Z,123.60
2022-09-26T04:28:46.335Z,101.68
2022-09-26T04:29:09.121Z,97.55
2022-09-26T04:29:32.033Z,116.43
2022-09-26T04:29:57.342Z,84.07
2022-09-26T04:30:20.283Z,94.90
2022-09-26T04:30:43.068Z,101.05
2022-09-26T04:31:06.809Z,95.57
2022-09-26T04:31:29.657Z,86.53
2022-09-26T04:31:53.914Z,189.50
2022-09-26T04:32:17.168Z,229.38
2022-09-26T04:32:39.887Z,191.88
2022-09-26T04:33:02.601Z,238.27
2022-09-26T04:33:25.358Z,295.00
2022-09-26T04:33:48.181Z,138.75
2022-09-26T04:34:11.733Z,170.50
2022-09-26T04:34:34.548Z,200.02
2022-09-26T04:34:57.294Z,216.55
2022-09-26T04:35:20.198Z,179.88
2022-09-26T04:35:44.029Z,173.20
2022-09-26T04:36:08.820Z,213.45
2022-09-26T04:36:31.839Z,86.47
2022-09-26T04:36:54.766Z,129.05
2022-09-26T04:37:17.865Z,119.18
2022-09-26T04:37:42.257Z,147.67
2022-09-26T04:38:05.633Z,120.05
2022-09-26T04:38:34.297Z,143.05
2022-09-26T04:39:00.737Z,134.05
2022-09-26T04:39:23.610Z,83.63
2022-09-26T04:39:46.419Z,96.97
2022-09-26T04:40:11.574Z,71.18
2022-09-26T04:40:35.748Z,99.53
2022-09-26T04:41:04.587Z,148.10
2022-09-26T04:41:27.901Z,101.47
2022-09-26T04:41:51.578Z,89.38
2022-09-26T04:42:17.460Z,96.25
2022-09-26T04:42:41.778Z,134.32
2022-09-26T04:43:04.602Z,132.27
2022-09-26T04:43:27.314Z,124.05
2022-09-26T04:43:50.166Z,127.68
2022-09-26T04:44:13.144Z,156.13
2022-09-26T04:44:35.887Z,96.20
2022-09-26T04:44:58.715Z,89.97
2022-09-26T04:45:21.613Z,51.42
2022-09-26T04:45:44.912Z,54.90
2022-09-26T04:46:08.637Z,47.33
2022-09-26T04:46:31.750Z,49.08
2022-09-26T04:46:55.967Z,117.15
2022-09-26T04:47:18.748Z,246.27
2022-09-26T04:47:41.668Z,200.20
2022-09-26T04:48:04.599Z,100.13
2022-09-26T04:48:27.393Z,118.68
2022-09-26T04:48:50.418Z,64.53
2022-09-26T04:49:13.317Z,113.18
2022-09-26T04:49:36.513Z,122.07
2022-09-26T04:49:59.238Z,85.45
2022-09-26T04:50:21.975Z,75.50
2022-09-26T04:50:44.908Z,97.32
2022-09-26T04:51:08.182Z,95.00
2022-09-26T04:51:32.032Z,178.75
2022-09-26T04:51:55.923Z,156.55
2022-09-26T04:52:18.759Z,173.00
2022-09-26T04:52:41.534Z,98.68
2022-09-26T04:53:06.754Z,105.65
2022-09-26T04:53:29.545Z,243.90
2022-09-26T04:53:52.463Z,169.00
2022-09-26T04:54:16.373Z,124.47
2022-09-26T04:54:39.242Z,187.98
2022-09-26T04:55:01.928Z,118.20
2022-09-26T04:55:27.337Z,179.90
2022-09-26T04:55:50.372Z,109.85
2022-09-26T04:56:14.207Z,136.02
2022-09-26T04:56:36.993Z,135.00
2022-09-26T04:57:00.520Z,90.00
2022-09-26T04:57:23.288Z,127.18
2022-09-26T04:57:46.755Z,153.00
2022-09-26T04:58:09.532Z,140.20
2022-09-26T04:58:32.634Z,144.57
2022-09-26T04:58:56.623Z,127.43
2022-09-26T04:59:19.813Z,134.60
2022-09-26T04:59:42.572Z,125.95
2022-09-26T05:00:07.587Z,139.20
2022-09-26T05:00:30.409Z,118.55
2022-09-26T05:00:53.360Z,148.07
2022-09-26T05:01:17.332Z,115.07
2022-09-26T05:01:40.419Z,289.13
2022-09-26T05:02:06.615Z,125.05
2022-09-26T05:02:30.503Z,118.93
2022-09-26T05:02:54.273Z,84.82
2022-09-26T05:03:17.516Z,136.68
2022-09-26T05:03:40.981Z,68.18
2022-09-26T05:04:04.376Z,77.53
2022-09-26T05:04:27.899Z,69.32
2022-09-26T05:04:51.423Z,102.22
2022-09-26T05:05:14.448Z,93.03
2022-09-26T05:05:37.133Z,138.38
2022-09-26T05:06:00.249Z,73.18
2022-09-26T05:06:23.187Z,63.72
2022-09-26T05:06:45.959Z,48.70
2022-09-26T05:07:08.691Z,56.83
2022-09-26T05:07:31.525Z,45.00
2022-09-26T05:07:54.303Z,46.40
2022-09-26T05:08:17.158Z,49.92
2022-09-26T05:08:41.437Z,139.60
2022-09-26T05:09:04.846Z,193.30
2022-09-26T05:09:27.762Z,63.60
2022-09-26T05:09:50.662Z,48.50
2022-09-26T05:10:13.422Z,44.60
2022-09-26T05:10:36.137Z,39.15
2022-09-26T05:10:59.113Z,49.90
2022-09-26T05:11:21.917Z,92.68
2022-09-26T05:11:44.748Z,105.55
2022-09-26T05:12:07.493Z,93.68
2022-09-26T05:12:33.149Z,63.00
2022-09-26T05:12:58.773Z,56.00
2022-09-26T05:13:22.099Z,60.35
2022-09-26T05:13:45.346Z,49.47
2022-09-26T05:14:08.994Z,54.22
2022-09-26T05:14:31.914Z,60.92
2022-09-26T05:14:56.916Z,56.25
2022-09-26T05:15:19.693Z,54.58
2022-09-26T05:15:43.220Z,50.95